Time;durP1;ratioP1;P1;durP2;ratioP2;P2;SDS_P1;SDS_P2;PMS_P1;PMS_P2;Temp;Humidity;BMP_temperature;BMP_pressure;BME280_temperature;BME280_humidity;BME280_pressure;Samples;Min_cycle;Max_cycle;Signal;HPM_P1;HPM_P2
2023/04/12 00:04:33;;;;;;;51.33;32.38;;;4.30;99.90;;;;;;20749030;28;20116;-61
2023/04/12 00:14:34;;;;;;;45.80;28.52;;;4.50;99.90;;;;;;20748449;28;20112;-59
2023/04/12 00:24:40;;;;;;;54.35;32.28;;;4.30;99.90;;;;;;20747350;28;20033;-51
2023/04/12 00:34:41;;;;;;;54.00;31.40;;;4.20;99.90;;;;;;20745629;28;20029;-56
2023/04/12 00:44:43;;;;;;;53.40;33.50;;;4.40;99.90;;;;;;20744666;28;20033;-50
2023/04/12 00:54:45;;;;;;;48.67;30.00;;;4.60;99.90;;;;;;20745474;28;20502;-61
2023/04/12 01:04:49;;;;;;;47.33;30.00;;;4.80;99.90;;;;;;20744540;28;20040;-50
2023/04/12 01:15:05;;;;;;;49.00;30.30;;;4.90;99.90;;;;;;20742311;28;20054;-61
2023/04/12 01:25:37;;;;;;;49.53;30.30;;;4.70;99.90;;;;;;20740518;28;20061;-61
2023/04/12 01:35:40;;;;;;;54.17;32.20;;;4.30;99.90;;;;;;20742410;28;20034;-49
2023/04/12 01:45:43;;;;;;;57.20;32.45;;;3.90;99.90;;;;;;20742171;28;20042;-61
2023/04/12 01:55:45;;;;;;;61.03;33.60;;;4.00;99.90;;;;;;20740953;28;20080;-51
2023/04/12 02:05:50;;;;;;;63.83;33.58;;;4.10;99.90;;;;;;20740452;28;20109;-61
2023/04/12 02:15:55;;;;;;;58.97;32.58;;;4.00;99.90;;;;;;20738280;28;20470;-61
2023/04/12 02:25:57;;;;;;;65.10;34.30;;;3.80;99.90;;;;;;20737690;28;20398;-61
2023/04/12 02:36:01;;;;;;;59.28;33.70;;;3.90;99.90;;;;;;20738308;28;20038;-48
2023/04/12 02:46:03;;;;;;;55.17;31.90;;;4.10;99.90;;;;;;20736685;28;20026;-49
2023/04/12 02:56:12;;;;;;;53.95;31.88;;;4.10;99.90;;;;;;20721486;28;20072;-61
2023/04/12 03:06:14;;;;;;;59.30;33.97;;;4.00;99.90;;;;;;20719814;28;20080;-50
2023/04/12 03:16:22;;;;;;;55.95;32.55;;;4.20;99.90;;;;;;20735442;28;20149;-50
2023/04/12 03:26:29;;;;;;;54.90;31.85;;;4.50;99.90;;;;;;20729560;28;20364;-50
2023/04/12 03:36:33;;;;;;;48.45;29.33;;;4.80;99.90;;;;;;20736529;28;20060;-49
2023/04/12 03:46:55;;;;;;;53.78;32.17;;;5.00;99.90;;;;;;20740931;28;20099;-61
2023/04/12 03:56:59;;;;;;;46.03;29.02;;;5.30;99.90;;;;;;20749675;28;20029;-61
2023/04/12 04:07:06;;;;;;;41.40;26.40;;;5.40;99.90;;;;;;20747876;28;20220;-51
2023/04/12 04:17:15;;;;;;;35.90;24.58;;;5.60;99.90;;;;;;20746646;28;20454;-49
2023/04/12 04:27:19;;;;;;;37.78;23.52;;;5.70;99.90;;;;;;20745079;28;20038;-49
2023/04/12 04:37:23;;;;;;;34.47;22.83;;;5.90;99.90;;;;;;20745623;28;20399;-50
2023/04/12 04:47:29;;;;;;;35.70;22.85;;;6.00;99.90;;;;;;20742775;28;20042;-52
2023/04/12 04:57:31;;;;;;;41.28;25.02;;;6.00;99.90;;;;;;20744705;28;20467;-51
2023/04/12 05:07:32;;;;;;;37.63;25.10;;;6.10;99.90;;;;;;20742470;28;20537;-49
2023/04/12 05:17:34;;;;;;;39.22;24.10;;;6.00;99.90;;;;;;20742057;28;20045;-50
2023/04/12 05:27:36;;;;;;;34.78;22.13;;;6.00;99.90;;;;;;20743232;28;20038;-52
2023/04/12 05:37:40;;;;;;;33.58;21.83;;;6.10;99.90;;;;;;20740674;28;20034;-49
2023/04/12 05:47:42;;;;;;;33.47;21.70;;;6.30;99.90;;;;;;20741807;28;20458;-62
2023/04/12 05:57:47;;;;;;;33.90;21.88;;;6.40;99.90;;;;;;20740789;28;20034;-51
2023/04/12 06:07:52;;;;;;;32.03;21.60;;;6.40;99.90;;;;;;20739549;28;20152;-49
2023/04/12 06:17:53;;;;;;;28.73;20.30;;;6.60;99.90;;;;;;20739608;28;20045;-49
2023/04/12 06:27:55;;;;;;;31.45;21.77;;;6.90;99.90;;;;;;20737534;28;20360;-51
2023/04/12 06:37:59;;;;;;;31.55;21.40;;;7.20;99.90;;;;;;20719735;28;20045;-51
2023/04/12 06:48:01;;;;;;;28.50;19.98;;;7.70;99.90;;;;;;20740042;28;20037;-50
2023/04/12 06:58:02;;;;;;;27.40;19.13;;;8.30;99.90;;;;;;20737900;28;20553;-49
2023/04/12 07:08:04;;;;;;;27.52;18.92;;;8.20;99.90;;;;;;20737456;28;20424;-52
2023/04/12 07:18:06;;;;;;;29.13;19.17;;;8.40;99.90;;;;;;20737484;28;20449;-49
2023/04/12 07:28:07;;;;;;;24.77;18.00;;;8.40;99.90;;;;;;20750782;28;20135;-51
2023/04/12 07:38:09;;;;;;;25.63;17.58;;;8.30;99.90;;;;;;20751276;28;20069;-50
2023/04/12 07:48:11;;;;;;;22.50;16.50;;;8.40;99.90;;;;;;20750305;28;20101;-48
2023/04/12 07:58:12;;;;;;;25.15;16.35;;;8.70;99.90;;;;;;20749776;28;20041;-48
2023/04/12 08:08:14;;;;;;;21.20;15.45;;;9.10;99.90;;;;;;20748854;28;20052;-50
2023/04/12 08:18:16;;;;;;;25.52;17.63;;;10.10;99.90;;;;;;20748449;28;20466;-48
2023/04/12 08:28:17;;;;;;;25.52;17.85;;;10.10;99.90;;;;;;20748892;28;20034;-62
2023/04/12 08:38:19;;;;;;;25.33;16.80;;;9.60;99.90;;;;;;20745960;28;20468;-48
2023/04/12 08:48:22;;;;;;;23.20;16.40;;;9.40;99.90;;;;;;20746133;28;20042;-52
2023/04/12 08:58:24;;;;;;;21.40;14.90;;;9.60;99.90;;;;;;20742108;28;20030;-62
2023/04/12 09:08:26;;;;;;;20.60;15.32;;;10.10;99.90;;;;;;20744938;28;20432;-51
2023/04/12 09:18:28;;;;;;;21.52;14.93;;;10.50;99.90;;;;;;20744218;28;20041;-62
2023/04/12 09:28:30;;;;;;;20.73;15.60;;;10.40;99.90;;;;;;20743069;28;20034;-62
2023/04/12 09:38:32;;;;;;;23.00;16.00;;;11.00;99.90;;;;;;20742484;28;20030;-51
2023/04/12 09:48:34;;;;;;;22.75;15.77;;;10.60;99.90;;;;;;20740695;28;20034;-53
2023/04/12 09:58:37;;;;;;;23.88;16.95;;;9.90;99.90;;;;;;20733638;28;20025;-62
2023/04/12 10:08:41;;;;;;;21.42;16.10;;;9.70;99.90;;;;;;20739412;28;20049;-63
2023/04/12 10:18:43;;;;;;;29.70;18.33;;;10.00;99.90;;;;;;20739366;28;20379;-63
2023/04/12 10:28:54;;;;;;;27.27;18.90;;;9.70;99.90;;;;;;20739007;28;20088;-52
2023/04/12 10:39:09;;;;;;;28.13;17.83;;;9.90;99.90;;;;;;20738485;28;20034;-52
2023/04/12 10:49:13;;;;;;;31.55;19.13;;;10.00;99.90;;;;;;20738566;28;20357;-63
2023/04/12 10:59:15;;;;;;;25.13;17.15;;;9.90;99.90;;;;;;20747810;28;20042;-49
2023/04/12 11:09:30;;;;;;;23.33;16.83;;;10.20;99.90;;;;;;20752450;28;20372;-52
2023/04/12 11:19:36;;;;;;;24.58;15.40;;;10.60;99.90;;;;;;20748001;28;20518;-52
2023/04/12 11:29:38;;;;;;;20.05;14.30;;;12.40;99.90;;;;;;20752583;28;20399;-52
2023/04/12 11:39:42;;;;;;;22.65;15.75;;;13.30;99.90;;;;;;20751710;28;20066;-54
2023/04/12 11:49:50;;;;;;;20.63;15.32;;;13.50;99.90;;;;;;20751578;28;20427;-63
2023/04/12 11:59:52;;;;;;;22.50;15.00;;;12.50;99.90;;;;;;20750378;28;20034;-54
2023/04/12 12:09:55;;;;;;;20.60;14.90;;;12.20;99.90;;;;;;20746648;28;20030;-52
2023/04/12 12:20:03;;;;;;;22.27;14.07;;;12.30;99.90;;;;;;20747688;28;20061;-53
2023/04/12 12:30:08;;;;;;;25.23;14.95;;;12.20;99.90;;;;;;20747229;28;20042;-52
2023/04/12 12:40:20;;;;;;;21.77;13.55;;;11.90;99.90;;;;;;20747303;28;20026;-55
2023/04/12 12:50:24;;;;;;;16.98;13.05;;;12.00;99.90;;;;;;20745740;28;20391;-53
2023/04/12 13:00:27;;;;;;;18.38;13.98;;;13.30;99.90;;;;;;20745856;28;20038;-62
2023/04/12 13:10:29;;;;;;;16.55;12.82;;;13.20;99.90;;;;;;20742220;28;20434;-48
2023/04/12 13:20:31;;;;;;;17.58;12.60;;;12.90;99.90;;;;;;20744018;28;20050;-52
2023/04/12 13:30:32;;;;;;;18.15;11.80;;;12.40;99.90;;;;;;20743155;28;20034;-49
2023/04/12 13:40:35;;;;;;;14.93;11.63;;;12.30;99.90;;;;;;20742876;28;20030;-49
2023/04/12 13:50:36;;;;;;;17.50;12.10;;;12.30;99.90;;;;;;20742322;28;20187;-52
2023/04/12 14:00:38;;;;;;;17.40;11.35;;;12.20;99.90;;;;;;20742620;28;20033;-49
2023/04/12 14:10:39;;;;;;;15.48;10.98;;;11.80;99.90;;;;;;20738737;28;20037;-52
2023/04/12 14:20:45;;;;;;;16.98;11.55;;;11.10;99.90;;;;;;20740454;28;20119;-51
2023/04/12 14:30:49;;;;;;;14.55;11.20;;;10.80;99.90;;;;;;20737450;28;20247;-62
2023/04/12 14:40:53;;;;;;;18.35;11.90;;;10.40;99.90;;;;;;20739301;28;20084;-62
2023/04/12 14:50:54;;;;;;;16.00;11.48;;;10.50;99.90;;;;;;20737759;28;20034;-51
2023/04/12 15:00:59;;;;;;;17.70;13.48;;;10.80;99.90;;;;;;20738563;28;20104;-62
2023/04/12 15:11:00;;;;;;;16.95;11.35;;;11.20;99.90;;;;;;20736767;28;20034;-62
2023/04/12 15:21:04;;;;;;;16.23;11.70;;;11.00;99.90;;;;;;20737699;28;20108;-62
2023/04/12 15:31:06;;;;;;;24.90;13.13;;;10.50;99.90;;;;;;20737304;28;20034;-62
2023/04/12 15:41:09;;;;;;;21.33;13.15;;;9.90;99.90;;;;;;20739799;28;20034;-50
2023/04/12 15:51:12;;;;;;;20.33;13.38;;;9.50;99.90;;;;;;20750122;28;20042;-49
2023/04/12 16:01:15;;;;;;;24.23;13.15;;;9.00;99.90;;;;;;20748751;28;20029;-61
2023/04/12 16:11:18;;;;;;;22.77;13.13;;;8.60;99.90;;;;;;20749051;28;20034;-61
2023/04/12 16:21:21;;;;;;;22.52;12.52;;;8.50;99.90;;;;;;20732839;28;20046;-62
2023/04/12 16:31:24;;;;;;;19.25;11.32;;;8.50;99.90;;;;;;20754451;28;20033;-52
2023/04/12 16:41:25;;;;;;;18.83;11.98;;;8.40;99.90;;;;;;20761154;28;20034;-61
2023/04/12 16:51:27;;;;;;;22.85;12.23;;;8.00;99.90;;;;;;20746009;28;20099;-62
2023/04/12 17:01:29;;;;;;;21.98;10.88;;;7.50;99.90;;;;;;20745869;28;20045;-57
2023/04/12 17:11:31;;;;;;;18.77;12.40;;;7.20;99.90;;;;;;20745213;28;20034;-53
2023/04/12 17:21:41;;;;;;;25.13;13.25;;;6.90;99.90;;;;;;20743047;28;20573;-62
2023/04/12 17:31:44;;;;;;;27.05;16.52;;;6.50;99.90;;;;;;20748926;28;20549;-52
2023/04/12 17:41:46;;;;;;;27.63;16.67;;;6.10;99.90;;;;;;20740271;28;20037;-52
2023/04/12 17:51:48;;;;;;;31.05;17.23;;;5.60;99.90;;;;;;20728798;28;20042;-59
2023/04/12 18:01:49;;;;;;;39.22;20.17;;;5.40;99.90;;;;;;20741403;28;20088;-61
2023/04/12 18:11:52;;;;;;;32.25;18.65;;;5.40;99.90;;;;;;20738777;28;20034;-51
2023/04/12 18:21:53;;;;;;;23.73;13.98;;;5.50;99.90;;;;;;20740405;28;20100;-51
2023/04/12 18:31:55;;;;;;;22.20;12.32;;;5.70;99.90;;;;;;20740347;28;20037;-50
2023/04/12 18:41:57;;;;;;;22.10;12.48;;;5.90;99.90;;;;;;20736309;28;20034;-64
2023/04/12 18:51:59;;;;;;;22.70;12.82;;;6.10;99.90;;;;;;20737737;28;20034;-52
2023/04/12 19:02:00;;;;;;;15.43;10.18;;;6.10;99.90;;;;;;20736708;28;20078;-64
2023/04/12 19:12:04;;;;;;;7.65;4.60;;;6.20;99.90;;;;;;20737595;28;20029;-49
2023/04/12 19:22:05;;;;;;;652.72;33.38;;;6.30;99.90;;;;;;20750301;28;20653;-63
2023/04/12 19:32:11;;;;;;;286.15;20.63;;;6.30;99.90;;;;;;20766439;28;20502;-51
2023/04/12 19:42:16;;;;;;;23.85;14.90;;;6.10;99.90;;;;;;20743171;28;20030;-49
2023/04/12 19:52:20;;;;;;;30.95;16.23;;;6.10;99.90;;;;;;20750848;28;20034;-50
2023/04/12 20:02:23;;;;;;;25.65;15.02;;;6.00;99.90;;;;;;20749405;28;20034;-49
2023/04/12 20:12:25;;;;;;;25.30;15.38;;;5.90;99.90;;;;;;20748411;28;20053;-48
2023/04/12 20:22:28;;;;;;;24.63;16.17;;;6.00;99.90;;;;;;20749358;28;20042;-49
2023/04/12 20:32:30;;;;;;;22.35;15.90;;;5.90;99.90;;;;;;20747281;28;20038;-47
2023/04/12 20:42:32;;;;;;;31.52;16.83;;;5.90;99.90;;;;;;20747422;28;20383;-62
2023/04/12 20:52:33;;;;;;;29.65;16.73;;;5.90;99.90;;;;;;20746804;28;20092;-46
2023/04/12 21:02:37;;;;;;;28.50;15.43;;;5.80;99.90;;;;;;20746148;28;20442;-50
2023/04/12 21:12:40;;;;;;;23.33;15.55;;;5.80;99.90;;;;;;20744708;28;20562;-49
2023/04/12 21:22:43;;;;;;;27.08;16.15;;;5.80;99.90;;;;;;20744283;28;20038;-50
2023/04/12 21:32:45;;;;;;;25.33;15.45;;;5.80;99.90;;;;;;20743717;28;20454;-51
2023/04/12 21:42:47;;;;;;;25.92;15.70;;;5.80;99.90;;;;;;20743736;28;20609;-47
2023/04/12 21:52:48;;;;;;;36.75;16.48;;;5.80;99.90;;;;;;20742250;28;20038;-49
2023/04/12 22:02:50;;;;;;;30.00;15.68;;;5.80;99.90;;;;;;20741527;28;20033;-47
2023/04/12 22:12:52;;;;;;;40.88;16.60;;;5.80;99.90;;;;;;20740640;28;20109;-48
2023/04/12 22:22:56;;;;;;;233.52;23.48;;;5.80;99.90;;;;;;20740250;28;20042;-61
2023/04/12 22:32:58;;;;;;;201.95;22.08;;;5.80;99.90;;;;;;20738532;28;20034;-51
2023/04/12 22:43:00;;;;;;;77.57;21.15;;;5.80;99.90;;;;;;20739606;28;20065;-52
2023/04/12 22:53:01;;;;;;;160.20;20.90;;;5.90;99.90;;;;;;20746002;28;20376;-48
2023/04/12 23:03:04;;;;;;;34.50;17.73;;;5.90;99.90;;;;;;20755250;28;20037;-48
2023/04/12 23:13:06;;;;;;;35.38;16.15;;;5.90;99.90;;;;;;20754623;28;20045;-51
2023/04/12 23:23:08;;;;;;;192.23;20.17;;;5.80;99.90;;;;;;20754981;28;20403;-49
2023/04/12 23:33:10;;;;;;;808.75;41.25;;;5.70;99.90;;;;;;20753273;28;20038;-48
2023/04/12 23:43:12;;;;;;;220.18;19.70;;;5.70;99.90;;;;;;20751935;28;20030;-50
2023/04/12 23:53:15;;;;;;;198.65;21.63;;;5.70;99.90;;;;;;20751766;28;20482;-51
